createdAt,value
2023-03-24T00:03:10.849Z,55.07
2023-03-24T00:08:13.311Z,46.83
2023-03-24T00:13:16.293Z,52.83
2023-03-24T00:18:22.491Z,55.13
2023-03-24T00:23:27.326Z,59.27
2023-03-24T00:28:34.590Z,51.97
2023-03-24T00:33:37.815Z,52.80
2023-03-24T00:38:41.479Z,54.20
2023-03-24T00:43:44.222Z,53.67
2023-03-24T00:48:51.200Z,56.83
2023-03-24T00:53:57.951Z,45.27
2023-03-24T00:59:02.482Z,47.03
2023-03-24T01:04:06.139Z,48.63
2023-03-24T01:09:10.665Z,44.57
2023-03-24T01:14:13.788Z,48.10
2023-03-24T01:19:16.600Z,58.77
2023-03-24T01:24:20.719Z,57.03
2023-03-24T01:29:23.069Z,60.73
2023-03-24T01:34:25.552Z,67.27
2023-03-24T01:39:28.385Z,68.50
2023-03-24T01:44:37.843Z,78.67
2023-03-24T01:49:52.549Z,73.30
2023-03-24T01:55:08.195Z,66.13
2023-03-24T02:00:14.208Z,67.30
2023-03-24T02:05:17.736Z,69.80
2023-03-24T02:10:23.526Z,69.43
2023-03-24T02:15:30.029Z,63.90
2023-03-24T02:20:38.168Z,60.30
2023-03-24T02:26:18.683Z,62.07
2023-03-24T02:31:51.245Z,50.17
2023-03-24T02:37:29.669Z,52.53
2023-03-24T02:42:56.453Z,54.30
2023-03-24T02:48:09.970Z,60.20
2023-03-24T02:53:39.007Z,53.70
2023-03-24T02:59:04.390Z,53.50
2023-03-24T03:04:16.791Z,46.00
2023-03-24T03:09:22.969Z,48.90
2023-03-24T03:14:47.073Z,44.53
2023-03-24T03:20:08.034Z,44.37
2023-03-24T03:25:16.613Z,49.20
2023-03-24T03:30:47.732Z,53.70
2023-03-24T03:36:18.278Z,46.07
2023-03-24T03:41:21.115Z,52.63
2023-03-24T03:46:24.632Z,43.17
2023-03-24T03:51:27.331Z,43.60
2023-03-24T03:56:34.967Z,47.30
2023-03-24T04:01:56.328Z,51.37
2023-03-24T04:07:30.850Z,48.53
2023-03-24T04:13:06.496Z,50.47
2023-03-24T04:18:46.065Z,54.33
2023-03-24T04:24:10.470Z,55.10
2023-03-24T04:29:18.011Z,50.13
2023-03-24T04:34:26.053Z,43.30
2023-03-24T04:39:31.654Z,55.37
2023-03-24T04:44:37.328Z,196.33
2023-03-24T04:50:11.438Z,176.27
2023-03-24T04:55:36.145Z,181.97
2023-03-24T05:00:38.496Z,89.30
2023-03-24T05:05:42.354Z,187.90
2023-03-24T05:10:46.090Z,154.90
2023-03-24T05:15:48.537Z,134.27
2023-03-24T05:21:00.703Z,66.07
2023-03-24T05:26:03.763Z,56.23
2023-03-24T05:31:18.688Z,42.70
2023-03-24T05:36:30.090Z,31.77
2023-03-24T05:41:35.037Z,33.93
2023-03-24T05:46:38.307Z,16.00
2023-03-24T05:51:40.782Z,13.47
2023-03-24T05:56:44.013Z,13.70
2023-03-24T06:02:06.786Z,12.37
2023-03-24T06:07:22.249Z,10.90
2023-03-24T06:12:24.858Z,19.17
2023-03-24T06:17:38.697Z,12.70
2023-03-24T06:22:49.836Z,12.93
2023-03-24T06:28:04.080Z,12.47
2023-03-24T06:33:08.476Z,15.73
2023-03-24T06:38:11.857Z,24.50
2023-03-24T06:43:15.568Z,19.97
2023-03-24T06:48:19.257Z,16.57
2023-03-24T06:53:22.880Z,14.30
2023-03-24T06:58:25.869Z,25.80
2023-03-24T07:03:34.278Z,26.03
2023-03-24T07:08:59.691Z,25.40
2023-03-24T07:14:04.436Z,20.70
2023-03-24T07:19:08.927Z,19.60
2023-03-24T07:24:14.201Z,18.17
2023-03-24T07:29:29.181Z,26.03
2023-03-24T07:34:50.421Z,17.03
2023-03-24T07:39:53.277Z,14.67
2023-03-24T07:44:56.180Z,13.77
2023-03-24T07:49:59.600Z,15.07
2023-03-24T07:55:02.061Z,15.20
2023-03-24T08:00:29.635Z,15.57
2023-03-24T08:05:52.860Z,15.20
2023-03-24T08:11:05.178Z,19.13
2023-03-24T08:16:39.703Z,12.97
2023-03-24T08:21:42.133Z,11.00
2023-03-24T08:26:46.673Z,12.97
2023-03-24T08:31:49.085Z,12.70
2023-03-24T08:36:51.481Z,16.23
2023-03-24T08:41:55.076Z,11.63
2023-03-24T08:46:57.551Z,13.67
2023-03-24T08:52:01.387Z,13.87
2023-03-24T08:57:03.850Z,24.73
2023-03-24T09:02:06.573Z,13.00
2023-03-24T09:07:10.526Z,13.27
2023-03-24T09:12:13.121Z,21.77
2023-03-24T09:17:15.737Z,25.67
2023-03-24T09:22:18.116Z,341.63
2023-03-24T09:27:20.439Z,341.80
2023-03-24T09:32:22.911Z,576.90
2023-03-24T09:37:25.988Z,161.67
2023-03-24T09:42:51.577Z,26.90
2023-03-24T09:47:59.019Z,9.53
2023-03-24T09:53:09.683Z,33.47
2023-03-24T09:58:13.460Z,25.37
2023-03-24T10:03:22.789Z,14.37
2023-03-24T10:08:35.935Z,11.80
2023-03-24T10:21:32.477Z,21.43
2023-03-24T10:27:06.916Z,18.57
2023-03-24T10:32:19.618Z,20.37
2023-03-24T10:37:22.722Z,17.47
2023-03-24T10:42:28.364Z,12.10
2023-03-24T10:47:33.229Z,9.60
2023-03-24T10:52:40.774Z,19.70
2023-03-24T10:57:45.468Z,16.33
2023-03-24T11:02:56.800Z,23.10
2023-03-24T11:08:27.293Z,27.93
2023-03-24T11:13:34.527Z,13.27
2023-03-24T11:18:37.386Z,13.97
2023-03-24T11:23:47.661Z,12.43
2023-03-24T11:28:57.160Z,11.47
2023-03-24T11:34:03.445Z,40.83
2023-03-24T11:39:22.044Z,35.10
2023-03-24T11:44:25.852Z,24.87
2023-03-24T11:49:32.944Z,11.13
2023-03-24T11:54:37.101Z,20.60
2023-03-24T11:59:58.670Z,15.90
2023-03-24T12:05:56.019Z,21.33
2023-03-24T12:11:18.844Z,10.93
2023-03-24T12:16:53.214Z,9.07
2023-03-24T12:22:21.558Z,16.57
2023-03-24T12:27:49.639Z,10.37
2023-03-24T12:33:24.468Z,4.87
2023-03-24T12:38:47.583Z,4.57
2023-03-24T12:44:23.852Z,6.10
2023-03-24T12:49:41.346Z,5.93
2023-03-24T12:55:08.311Z,4.87
2023-03-24T13:00:38.378Z,7.57
2023-03-24T13:05:46.740Z,3.30
2023-03-24T13:10:54.769Z,8.00
2023-03-24T13:16:19.280Z,4.60
2023-03-24T13:21:26.036Z,7.37
2023-03-24T13:26:54.749Z,3.73
2023-03-24T13:32:08.695Z,4.80
2023-03-24T13:37:22.797Z,4.47
2023-03-24T13:42:42.111Z,7.37
2023-03-24T13:48:02.594Z,6.13
2023-03-24T13:53:15.631Z,3.30
2023-03-24T13:58:28.414Z,3.43
2023-03-24T14:03:36.955Z,4.37
2023-03-24T14:08:52.018Z,6.17
2023-03-24T14:13:54.710Z,7.53
2023-03-24T14:19:22.175Z,9.07
2023-03-24T14:24:28.686Z,13.00
2023-03-24T14:29:48.557Z,99.80
2023-03-24T14:34:52.192Z,208.63
2023-03-24T14:39:59.404Z,286.90
2023-03-24T14:45:27.062Z,203.60
2023-03-24T14:50:30.072Z,194.90
2023-03-24T14:55:34.263Z,136.53
2023-03-24T15:00:51.823Z,21.17
2023-03-24T15:06:15.161Z,17.50
2023-03-24T15:11:22.100Z,31.13
2023-03-24T15:16:51.328Z,21.93
2023-03-24T15:22:06.868Z,12.93
2023-03-24T15:27:26.566Z,32.37
2023-03-24T15:32:33.048Z,7.27
2023-03-24T15:37:43.067Z,17.03
2023-03-24T15:42:46.889Z,18.93
2023-03-24T15:47:53.347Z,13.43
2023-03-24T15:53:21.126Z,16.47
2023-03-24T15:58:26.831Z,27.23
2023-03-24T16:03:34.219Z,22.67
2023-03-24T16:08:43.190Z,15.53
2023-03-24T16:13:48.356Z,14.67
2023-03-24T16:18:53.834Z,7.93
2023-03-24T16:23:57.943Z,13.80
2023-03-24T16:29:14.529Z,18.00
2023-03-24T16:34:21.095Z,17.17
2023-03-24T16:39:28.882Z,10.27
2023-03-24T16:44:31.275Z,14.53
2023-03-24T16:49:35.343Z,11.33
2023-03-24T16:54:37.854Z,12.13
2023-03-24T16:59:42.231Z,23.53
2023-03-24T17:04:45.220Z,34.70
2023-03-24T17:09:50.096Z,41.17
2023-03-24T17:14:52.765Z,59.10
2023-03-24T17:19:57.564Z,51.93
2023-03-24T17:25:00.163Z,71.57
2023-03-24T17:30:02.702Z,130.83
2023-03-24T17:35:07.053Z,34.33
2023-03-24T17:40:14.876Z,123.13
2023-03-24T17:45:18.869Z,93.60
2023-03-24T17:50:22.386Z,133.37
2023-03-24T17:55:24.769Z,133.97
2023-03-24T18:00:27.173Z,174.20
2023-03-24T18:05:30.463Z,190.40
2023-03-24T18:10:35.711Z,160.90
2023-03-24T18:15:41.831Z,109.10
2023-03-24T18:20:44.225Z,130.60
2023-03-24T18:25:46.758Z,74.43
2023-03-24T18:30:49.367Z,70.50
2023-03-24T18:35:56.259Z,63.40
2023-03-24T18:41:07.017Z,60.50
2023-03-24T18:46:11.037Z,39.33
2023-03-24T18:51:14.745Z,44.87
2023-03-24T18:56:18.093Z,42.73
2023-03-24T19:01:26.207Z,75.87
2023-03-24T19:06:31.489Z,79.77
2023-03-24T19:11:34.270Z,43.97
2023-03-24T19:16:36.762Z,37.83
2023-03-24T19:21:40.508Z,28.67
2023-03-24T19:26:42.908Z,33.87
2023-03-24T19:31:45.305Z,42.63
2023-03-24T19:36:49.594Z,42.20
2023-03-24T19:41:53.151Z,22.43
2023-03-24T19:46:55.485Z,29.67
2023-03-24T19:51:58.532Z,33.87
2023-03-24T19:57:00.925Z,26.40
2023-03-24T20:02:03.520Z,40.67
2023-03-24T20:07:06.880Z,43.23
2023-03-24T20:12:09.393Z,29.47
2023-03-24T20:17:18.366Z,28.03
2023-03-24T20:22:21.311Z,26.83
2023-03-24T20:27:24.061Z,27.80
2023-03-24T20:32:26.553Z,23.63
2023-03-24T20:37:30.660Z,38.07
2023-03-24T20:42:33.962Z,36.93
2023-03-24T20:47:37.203Z,29.93
2023-03-24T20:52:39.957Z,28.53
2023-03-24T20:57:42.506Z,29.67
2023-03-24T21:02:45.729Z,27.13
2023-03-24T21:07:49.091Z,18.03
2023-03-24T21:12:52.381Z,26.00
2023-03-24T21:17:57.459Z,18.93
2023-03-24T21:23:04.498Z,21.57
2023-03-24T21:28:09.197Z,21.03
2023-03-24T21:33:12.909Z,31.70
2023-03-24T21:38:16.109Z,22.47
2023-03-24T21:43:18.504Z,21.60
2023-03-24T21:48:22.292Z,27.13
2023-03-24T21:53:26.864Z,25.57
2023-03-24T21:58:31.882Z,25.20
2023-03-24T22:03:34.904Z,27.50
2023-03-24T22:08:39.189Z,28.33
2023-03-24T22:13:41.574Z,21.57
2023-03-24T22:18:44.001Z,22.63
2023-03-24T22:24:18.388Z,19.53
2023-03-24T22:29:21.149Z,17.20
2023-03-24T22:34:23.540Z,21.97
2023-03-24T22:39:26.108Z,22.77
2023-03-24T22:44:31.367Z,29.53
2023-03-24T22:49:33.906Z,26.33
2023-03-24T22:54:36.379Z,24.93
2023-03-24T22:59:38.769Z,25.43
2023-03-24T23:04:42.077Z,27.27
2023-03-24T23:09:44.893Z,23.60
2023-03-24T23:14:47.465Z,22.57
2023-03-24T23:19:52.186Z,26.03
2023-03-24T23:25:02.152Z,33.43
2023-03-24T23:30:08.381Z,36.63
2023-03-24T23:35:11.404Z,35.43
2023-03-24T23:40:15.645Z,24.70
2023-03-24T23:45:20.015Z,26.37
2023-03-24T23:50:22.453Z,31.87
2023-03-24T23:55:27.214Z,35.53
